LLIB

Ben Ya'akov Airport

Rosh Pina, Israel
TAF LLIB 131110Z 1312/1412 30008KT 9999 FEW045 BECMG 1317/1319 VRB04KT BECMG 1405/1407 16006KT CAVOK TX16/1312Z TN08/1405Z
Issued Valid From Valid To
Dec-13 @ 11:10 UTC
(17 hours ago)
Dec-13 @ 12:00 UTC
(16 hours ago)
Dec-14 @ 12:00 UTC
(in 8 hours)
Expired Click to View Dec-13 @ 12:00 to Dec-13 @ 17:00
TAF LLIB 131110Z 1312/1412 30008KT 9999 FEW045
Wind Visibility Clouds
300° at 8 knots 10,000+ meters
  • Few at 4,500' AGL
Becoming Dec-13 @ 17:00 to Dec-14 @ 05:00
BECMG 1317/1319 VRB04KT
Wind Visibility Clouds
Variable at 4 knots 10,000+ meters
  • Few at 4,500' AGL
Becoming Dec-14 @ 05:00 to Dec-14 @ 12:00
BECMG 1405/1407 16006KT CAVOK TX16/1312Z TN08/1405Z
Wind Visibility Clouds
160° at 6 knots 10,000+ meters
  • No significant clouds
TAF LLIB 131110Z 1312/1412 30008KT 9999 FEW045 BECMG 1317/1319 VRB04KT BECMG 1405/1407 16006KT CAVOK TX16/1312Z TN08/1405Z
Issued Dec-13 @ 11:10 UTC
(17 hours ago)
Valid From Dec-13 @ 12:00 UTC
(16 hours ago)
Valid To Dec-14 @ 12:00 UTC
(in 8 hours)
Dec-13 @ 12:00 - Dec-13 @ 17:00
Wind Visibility
300° at 8 knots 10,000+ meters
Clouds
  • Few at 4,500' AGL
Becoming Dec-13 @ 17:00 - Dec-14 @ 05:00
Wind Visibility
Variable at 4 knots 10,000+ meters
Clouds
  • Few at 4,500' AGL
Becoming Dec-14 @ 05:00 - Dec-14 @ 12:00
Wind Visibility
160° at 6 knots 10,000+ meters
Clouds
  • No significant clouds